Time;durP1;ratioP1;P1;durP2;ratioP2;P2;SDS_P1;SDS_P2;PMS_P1;PMS_P2;Temp;Humidity;BMP_temperature;BMP_pressure;BME280_temperature;BME280_humidity;BME280_pressure;Samples;Min_cycle;Max_cycle;Signal;HPM_P1;HPM_P2
2022/05/24 00:00:20;;;;;;;4.00;2.85;;;;;;;11.28;100.00;99911.66;5030105;28;20041;-74
2022/05/24 00:02:46;;;;;;;3.75;3.10;;;;;;;11.28;100.00;99905.50;5013582;28;20032;-75
2022/05/24 00:05:12;;;;;;;5.22;3.40;;;;;;;11.25;100.00;99900.41;5032084;28;20727;-74
2022/05/24 00:07:38;;;;;;;7.95;3.88;;;;;;;11.22;100.00;99898.78;5030305;28;20535;-74
2022/05/24 00:10:05;;;;;;;6.63;3.53;;;;;;;11.18;100.00;99897.31;5029933;28;20047;-75
2022/05/24 00:12:31;;;;;;;5.97;3.80;;;;;;;11.17;100.00;99895.56;5033601;28;20102;-74
2022/05/24 00:17:41;;;;;;;6.05;3.75;;;;;;;11.11;100.00;99896.81;5017606;28;20048;-75
2022/05/24 00:20:07;;;;;;;5.38;3.47;;;;;;;11.08;100.00;99896.16;5030581;28;20033;-74
2022/05/24 00:22:33;;;;;;;6.18;3.80;;;;;;;11.04;100.00;99897.28;5029698;28;20384;-73
2022/05/24 00:25:01;;;;;;;6.75;4.00;;;;;;;11.02;100.00;99896.53;5032868;28;20040;-74
2022/05/24 00:27:30;;;;;;;7.45;4.45;;;;;;;10.98;100.00;99893.22;5032808;28;20060;-75
2022/05/24 00:29:56;;;;;;;7.22;4.10;;;;;;;10.94;100.00;99903.16;5012181;28;20044;-74
2022/05/24 00:32:23;;;;;;;5.65;4.28;;;;;;;10.92;100.00;99904.22;5013851;28;20971;-75
2022/05/24 00:34:48;;;;;;;8.57;5.05;;;;;;;10.91;100.00;99905.16;5027875;28;20277;-75
2022/05/24 00:37:14;;;;;;;7.38;5.30;;;;;;;10.91;100.00;99915.75;5031427;28;20039;-74
2022/05/24 00:39:39;;;;;;;9.13;5.22;;;;;;;10.92;100.00;99906.84;5012805;28;20746;-75
2022/05/24 00:42:11;;;;;;;9.00;5.68;;;;;;;10.95;100.00;99910.16;5032158;28;20392;-74
2022/05/24 00:44:40;;;;;;;8.25;5.88;;;;;;;10.98;100.00;99903.81;5007309;28;20574;-75
2022/05/24 00:47:10;;;;;;;7.93;5.25;;;;;;;11.03;100.00;99900.88;5012336;28;20120;-75
2022/05/24 00:49:43;;;;;;;8.73;5.50;;;;;;;11.06;100.00;99901.53;5029041;28;20033;-73
2022/05/24 00:52:15;;;;;;;7.70;5.68;;;;;;;11.12;100.00;99908.28;5005870;28;20053;-74
2022/05/24 00:54:42;;;;;;;10.20;6.03;;;;;;;11.16;100.00;99904.47;5030595;28;20029;-75
2022/05/24 00:57:28;;;;;;;10.20;6.03;;;;;;;11.19;100.00;99899.00;5005974;28;20033;-75
2022/05/24 01:00:14;;;;;;;9.95;5.72;;;;;;;11.21;100.00;99894.44;5015414;28;20060;-75
2022/05/24 01:02:41;;;;;;;9.43;5.95;;;;;;;11.24;100.00;99888.94;5029091;28;20044;-76
2022/05/24 01:05:17;;;;;;;9.68;6.43;;;;;;;11.28;100.00;99886.97;4997900;28;20479;-75
2022/05/24 01:07:42;;;;;;;9.07;5.93;;;;;;;11.33;100.00;99886.66;5028824;28;20883;-75
2022/05/24 01:10:14;;;;;;;8.05;5.50;;;;;;;11.35;100.00;99892.72;5031491;28;20041;-76
2022/05/24 01:12:48;;;;;;;11.65;6.70;;;;;;;11.36;100.00;99895.28;5031483;28;20153;-75
2022/05/24 01:15:15;;;;;;;8.98;5.80;;;;;;;11.39;100.00;99894.22;5008158;28;21524;-74
2022/05/24 01:17:41;;;;;;;6.75;5.10;;;;;;;11.40;100.00;99896.75;5029590;28;20302;-75
2022/05/24 01:20:07;;;;;;;9.82;5.82;;;;;;;11.42;100.00;99901.97;5032654;28;20047;-77
2022/05/24 01:23:00;;;;;;;11.45;5.45;;;;;;;11.45;100.00;99904.44;5031253;28;20044;-76
2022/05/24 01:25:48;;;;;;;9.20;5.97;;;;;;;11.46;100.00;99895.53;5029028;28;20099;-76
2022/05/24 01:28:25;;;;;;;11.13;6.63;;;;;;;11.49;100.00;99890.03;5032015;28;20032;-77
2022/05/24 01:30:51;;;;;;;10.65;6.50;;;;;;;11.52;100.00;99895.16;5029629;28;20470;-77
2022/05/24 01:36:10;;;;;;;14.55;7.38;;;;;;;11.58;100.00;99882.41;5031185;28;22101;-78
2022/05/24 01:38:39;;;;;;;14.73;7.30;;;;;;;11.61;100.00;99888.38;5028679;28;20024;-77
2022/05/24 01:41:05;;;;;;;11.65;7.40;;;;;;;11.64;100.00;99879.38;5025697;28;20032;-77
2022/05/24 01:43:31;;;;;;;15.65;9.35;;;;;;;11.66;100.00;99873.03;5019429;28;20732;-74
2022/05/24 01:46:00;;;;;;;15.18;9.40;;;;;;;11.68;100.00;99883.53;5027586;28;20029;-76
2022/05/24 01:48:43;;;;;;;17.80;9.88;;;;;;;11.71;100.00;99878.00;5028117;28;20503;-76
2022/05/24 01:51:11;;;;;;;19.45;11.30;;;;;;;11.72;100.00;99879.72;5030315;28;20110;-77
2022/05/24 01:53:42;;;;;;;23.17;12.02;;;;;;;11.75;100.00;99873.34;5013117;28;21417;-77
2022/05/24 01:56:12;;;;;;;23.20;12.40;;;;;;;11.77;100.00;99872.31;5029016;28;20033;-75
2022/05/24 01:58:39;;;;;;;24.08;12.35;;;;;;;11.79;100.00;99872.22;5026828;28;20497;-75
2022/05/24 02:01:12;;;;;;;29.17;12.48;;;;;;;11.81;100.00;99870.31;5003834;28;20156;-76
2022/05/24 02:03:37;;;;;;;24.27;11.73;;;;;;;11.82;100.00;99867.56;5013030;28;20048;-76
2022/05/24 02:06:25;;;;;;;24.08;12.30;;;;;;;11.85;100.00;99876.25;5028045;28;20548;-77
2022/05/24 02:08:52;;;;;;;21.63;11.65;;;;;;;11.87;100.00;99866.41;5027291;28;20575;-77
2022/05/24 02:11:23;;;;;;;25.83;12.23;;;;;;;11.88;100.00;99866.28;5004069;28;21479;-77
2022/05/24 02:13:50;;;;;;;20.60;12.07;;;;;;;11.91;100.00;99862.59;5031941;28;20425;-77
2022/05/24 02:16:22;;;;;;;20.75;11.98;;;;;;;11.93;100.00;99866.84;5026547;28;20242;-77
2022/05/24 02:18:50;;;;;;;21.35;11.48;;;;;;;11.95;100.00;99874.72;4991985;28;20029;-77
2022/05/24 02:21:15;;;;;;;21.27;10.27;;;;;;;11.97;100.00;99864.84;5011225;28;20120;-75
2022/05/24 02:23:43;;;;;;;19.98;10.52;;;;;;;11.99;100.00;99873.53;5018937;28;20082;-77
2022/05/24 02:26:10;;;;;;;18.92;10.82;;;;;;;12.01;100.00;99870.78;5010757;28;20020;-75
2022/05/24 02:28:36;;;;;;;19.52;11.32;;;;;;;12.02;100.00;99870.69;5029642;28;20041;-74
2022/05/24 02:31:08;;;;;;;18.02;9.85;;;;;;;12.03;100.00;99880.38;5011238;28;20146;-75
2022/05/24 02:33:35;;;;;;;21.50;11.30;;;;;;;12.05;100.00;99875.81;5010315;28;20041;-76
2022/05/24 02:36:02;;;;;;;20.83;10.73;;;;;;;12.06;100.00;99866.06;5026888;28;20482;-76
2022/05/24 02:38:28;;;;;;;19.98;11.15;;;;;;;12.08;100.00;99862.34;5011356;28;20261;-76
2022/05/24 02:43:38;;;;;;;22.63;10.50;;;;;;;12.12;100.00;99863.00;5026800;28;21404;-77
2022/05/24 02:46:04;;;;;;;19.30;10.18;;;;;;;12.14;100.00;99865.56;5011915;28;20043;-77
2022/05/24 02:48:30;;;;;;;19.10;10.38;;;;;;;12.15;100.00;99867.25;5020320;28;20058;-77
2022/05/24 02:50:55;;;;;;;19.38;10.65;;;;;;;12.15;100.00;99868.06;5011505;28;20029;-76
2022/05/24 02:53:21;;;;;;;19.88;10.73;;;;;;;12.15;100.00;99880.50;5010677;28;20033;-74
2022/05/24 02:55:47;;;;;;;16.13;10.40;;;;;;;12.14;100.00;99900.88;5012465;28;20033;-76
2022/05/24 02:58:12;;;;;;;16.70;11.15;;;;;;;12.15;100.00;99893.78;5029841;28;20070;-75
2022/05/24 03:00:38;;;;;;;21.25;11.43;;;;;;;12.15;100.00;99885.81;5026467;28;21774;-76
2022/05/24 03:03:04;;;;;;;18.77;11.65;;;;;;;12.14;100.00;99886.78;5025514;28;20039;-77
2022/05/24 03:05:29;;;;;;;18.58;10.77;;;;;;;12.13;100.00;99882.41;5027183;28;20319;-76
2022/05/24 03:10:41;;;;;;;17.58;11.02;;;;;;;12.10;100.00;99883.47;5017840;28;20048;-76
2022/05/24 03:15:52;;;;;;;18.15;10.07;;;;;;;12.06;100.00;99889.94;5035819;28;20073;-77
2022/05/24 03:18:19;;;;;;;16.50;9.77;;;;;;;12.04;100.00;99889.19;5030126;28;20128;-77
2022/05/24 03:20:45;;;;;;;14.40;9.45;;;;;;;12.01;100.00;99899.97;4994287;28;20045;-77
2022/05/24 03:23:11;;;;;;;13.90;8.93;;;;;;;11.99;100.00;99902.72;5015421;28;20040;-77
2022/05/24 03:25:38;;;;;;;14.68;8.30;;;;;;;11.96;100.00;99902.94;5021507;28;20145;-76
2022/05/24 03:28:04;;;;;;;11.82;7.93;;;;;;;11.94;100.00;99908.31;5032960;28;20087;-78
2022/05/24 03:30:31;;;;;;;11.25;7.20;;;;;;;11.93;100.00;99913.75;5032993;28;20047;-78
2022/05/24 03:32:56;;;;;;;11.40;6.68;;;;;;;11.92;100.00;99909.38;5013166;28;20029;-77
2022/05/24 03:35:22;;;;;;;11.82;6.53;;;;;;;11.90;100.00;99913.94;5031845;28;20033;-76
2022/05/24 03:37:48;;;;;;;7.22;5.10;;;;;;;11.89;100.00;99917.53;5016797;28;20028;-77
2022/05/24 03:40:14;;;;;;;7.70;5.05;;;;;;;11.87;100.00;99924.75;5015828;28;20742;-78
2022/05/24 03:42:39;;;;;;;9.88;5.22;;;;;;;11.85;100.00;99918.69;5030929;28;20753;-77
2022/05/24 03:45:07;;;;;;;8.45;5.07;;;;;;;11.82;100.00;99922.38;5021437;28;20154;-76
2022/05/24 03:47:33;;;;;;;12.35;5.72;;;;;;;11.80;100.00;99924.28;5033095;28;20894;-78
2022/05/24 03:49:59;;;;;;;10.20;5.57;;;;;;;11.76;100.00;99928.94;5032200;28;20025;-76
2022/05/24 03:52:24;;;;;;;9.23;5.50;;;;;;;11.72;100.00;99929.25;5020717;28;20272;-76
2022/05/24 03:54:50;;;;;;;9.82;5.38;;;;;;;11.68;100.00;99925.94;5032347;28;20098;-79
2022/05/24 04:00:00;;;;;;;8.25;5.13;;;;;;;11.62;100.00;99926.34;5031783;28;20040;-77
2022/05/24 04:02:25;;;;;;;8.80;5.13;;;;;;;11.59;100.00;99916.78;5030566;28;20715;-76
2022/05/24 04:04:51;;;;;;;9.07;4.72;;;;;;;11.57;100.00;99923.13;4993152;28;20166;-76
2022/05/24 04:07:17;;;;;;;9.85;5.40;;;;;;;11.54;100.00;99930.34;5012490;28;20400;-77
2022/05/24 04:09:42;;;;;;;8.63;5.43;;;;;;;11.52;100.00;99926.94;5030322;28;20028;-78
2022/05/24 04:12:08;;;;;;;10.85;5.05;;;;;;;11.49;100.00;99927.13;5033035;28;20182;-77
2022/05/24 04:14:34;;;;;;;8.52;5.22;;;;;;;11.47;100.00;99934.34;5030629;28;20037;-77
2022/05/24 04:17:00;;;;;;;8.95;5.30;;;;;;;11.47;100.00;99936.13;5012572;28;20067;-77
2022/05/24 04:19:25;;;;;;;11.00;5.40;;;;;;;11.44;100.00;99936.34;5026878;28;20041;-77
2022/05/24 04:21:51;;;;;;;11.55;5.63;;;;;;;11.42;100.00;99933.78;5029810;28;20181;-76
2022/05/24 04:24:16;;;;;;;8.55;5.07;;;;;;;11.39;100.00;99921.56;5033531;28;20095;-77
2022/05/24 04:26:42;;;;;;;14.70;6.05;;;;;;;11.39;100.00;99928.69;5032781;28;20068;-75
2022/05/24 04:29:08;;;;;;;11.98;5.95;;;;;;;11.38;100.00;99924.31;4996501;28;20420;-77
2022/05/24 04:31:33;;;;;;;11.82;6.60;;;;;;;11.38;100.00;99919.88;5015296;28;20040;-77
2022/05/24 04:33:58;;;;;;;16.00;6.32;;;;;;;11.40;100.00;99922.44;5016006;28;20071;-77
2022/05/24 04:36:24;;;;;;;12.40;6.70;;;;;;;11.42;100.00;99923.16;5013877;28;20047;-79
2022/05/24 04:38:50;;;;;;;13.63;6.75;;;;;;;11.44;100.00;99926.56;5004123;28;20044;-77
2022/05/24 04:44:00;;;;;;;11.82;7.28;;;;;;;11.47;100.00;99934.34;5017260;28;20048;-78
2022/05/24 04:46:25;;;;;;;12.50;7.22;;;;;;;11.50;100.00;99933.28;5029267;28;20033;-77
2022/05/24 04:48:51;;;;;;;13.63;7.75;;;;;;;11.50;100.00;99923.53;5009557;28;20363;-78
2022/05/24 04:51:16;;;;;;;13.07;7.72;;;;;;;11.51;100.00;99932.34;5012526;28;20555;-76
2022/05/24 04:53:42;;;;;;;12.77;7.55;;;;;;;11.53;100.00;99933.09;5003534;28;20025;-78
2022/05/24 04:56:07;;;;;;;12.40;7.65;;;;;;;11.54;100.00;99930.34;5011187;28;20063;-77
2022/05/24 04:58:33;;;;;;;15.65;8.05;;;;;;;11.56;100.00;99935.56;4998227;28;20029;-77
2022/05/24 05:00:58;;;;;;;12.80;7.72;;;;;;;11.56;100.00;99940.84;5030762;28;20041;-77
2022/05/24 05:03:24;;;;;;;13.38;7.80;;;;;;;11.57;100.00;99945.22;5009175;28;20075;-78
2022/05/24 05:05:51;;;;;;;13.13;8.50;;;;;;;11.60;100.00;99945.00;5010457;28;20249;-77
2022/05/24 05:08:17;;;;;;;13.98;8.30;;;;;;;11.64;100.00;99950.94;5013688;28;21277;-78
2022/05/24 05:10:43;;;;;;;14.25;8.05;;;;;;;11.66;100.00;99962.31;5011077;28;20127;-77
2022/05/24 05:13:08;;;;;;;15.25;8.82;;;;;;;11.72;100.00;99963.72;5032531;28;20163;-77
2022/05/24 05:15:35;;;;;;;15.20;8.88;;;;;;;11.75;100.00;99958.22;5034029;28;20052;-78
2022/05/24 05:18:06;;;;;;;17.08;8.88;;;;;;;11.78;100.00;99950.91;5015083;28;20064;-76
2022/05/24 05:20:32;;;;;;;11.65;8.43;;;;;;;11.79;100.00;99947.34;5026309;28;20037;-77
2022/05/24 05:22:58;;;;;;;15.00;8.57;;;;;;;11.80;100.00;99945.50;5013708;28;20447;-77
2022/05/24 05:25:23;;;;;;;17.23;9.00;;;;;;;11.81;100.00;99942.78;5033921;28;20068;-77
2022/05/24 05:27:49;;;;;;;14.98;7.95;;;;;;;11.84;100.00;99956.78;5023527;28;20384;-75
2022/05/24 05:32:58;;;;;;;18.10;8.23;;;;;;;11.85;100.00;99988.50;5016552;28;20035;-76
2022/05/24 05:35:24;;;;;;;16.17;8.27;;;;;;;11.86;100.00;99976.94;5016201;28;20235;-77
2022/05/24 05:37:49;;;;;;;12.77;7.90;;;;;;;11.87;100.00;99970.69;5028985;28;20037;-77
2022/05/24 05:40:15;;;;;;;16.65;8.35;;;;;;;11.87;100.00;99983.94;5013285;28;20090;-77
2022/05/24 05:42:41;;;;;;;13.55;7.22;;;;;;;11.89;100.00;99979.41;5015595;28;20403;-76
2022/05/24 05:45:10;;;;;;;15.13;8.50;;;;;;;11.87;100.00;99967.19;5012856;28;20539;-76
2022/05/24 05:47:36;;;;;;;23.95;8.57;;;;;;;11.87;100.00;99973.34;5029738;28;20116;-77
2022/05/24 05:50:03;;;;;;;15.07;7.15;;;;;;;11.90;100.00;99985.53;5014192;28;20040;-77
2022/05/24 05:52:28;;;;;;;15.18;7.32;;;;;;;11.92;100.00;99992.47;5033064;28;20109;-74
2022/05/24 05:54:54;;;;;;;15.20;6.75;;;;;;;11.95;100.00;99996.72;5033577;28;20503;-77
2022/05/24 05:57:19;;;;;;;10.73;5.38;;;;;;;11.92;100.00;99991.59;5033001;28;20114;-77
2022/05/24 05:59:45;;;;;;;8.77;4.38;;;;;;;11.92;100.00;99997.75;5031604;28;20033;-79
2022/05/24 06:02:11;;;;;;;8.98;4.13;;;;;;;11.97;100.00;100004.59;5028048;28;20696;-79
2022/05/24 06:04:36;;;;;;;7.88;3.58;;;;;;;12.01;100.00;100012.25;5029920;28;20520;-77
2022/05/24 06:07:03;;;;;;;7.38;3.20;;;;;;;12.08;100.00;100016.22;5029123;28;20040;-77
2022/05/24 06:09:29;;;;;;;6.10;3.80;;;;;;;12.05;100.00;100021.72;5027849;28;20070;-80
2022/05/24 06:11:54;;;;;;;6.95;3.80;;;;;;;12.06;100.00;100011.97;5029385;28;20149;-80
2022/05/24 06:14:20;;;;;;;6.95;3.67;;;;;;;12.07;100.00;100003.91;5010550;28;20066;-77
2022/05/24 06:16:45;;;;;;;5.05;3.53;;;;;;;12.08;100.00;100013.56;4993737;28;20069;-78
2022/05/24 06:19:11;;;;;;;6.03;3.53;;;;;;;12.05;100.00;100016.41;5025732;28;20045;-76
2022/05/24 06:21:37;;;;;;;5.45;2.95;;;;;;;12.05;100.00;100011.09;5020192;28;20148;-79
2022/05/24 06:24:06;;;;;;;5.65;3.30;;;;;;;12.06;100.00;100010.19;4998774;28;20120;-78
2022/05/24 06:26:35;;;;;;;5.47;3.63;;;;;;;12.05;100.00;100018.22;5040252;28;20033;-78
2022/05/24 06:29:01;;;;;;;5.93;3.25;;;;;;;12.06;100.00;100020.78;4994361;28;20443;-78
2022/05/24 06:31:27;;;;;;;5.60;3.42;;;;;;;12.07;100.00;100026.94;5007132;28;20064;-78
2022/05/24 06:33:53;;;;;;;5.00;3.28;;;;;;;12.06;100.00;100025.22;5018963;28;20492;-75
2022/05/24 06:36:18;;;;;;;6.65;3.85;;;;;;;12.06;100.00;100031.41;5026568;28;20042;-76
2022/05/24 06:38:44;;;;;;;6.60;4.13;;;;;;;12.06;100.00;100020.78;5009626;28;20172;-76
2022/05/24 06:41:10;;;;;;;6.10;3.72;;;;;;;12.04;100.00;100014.72;5012671;28;20442;-76
2022/05/24 06:43:36;;;;;;;7.10;4.45;;;;;;;12.03;100.00;100013.00;5014638;28;20033;-75
2022/05/24 06:46:09;;;;;;;6.72;4.60;;;;;;;12.05;100.00;100028.84;5015023;28;20448;-76
2022/05/24 06:48:43;;;;;;;8.70;5.03;;;;;;;12.06;100.00;100023.44;5016261;28;20029;-76
2022/05/24 06:51:10;;;;;;;8.80;5.47;;;;;;;12.07;100.00;100016.31;5015514;28;20128;-75
2022/05/24 06:53:37;;;;;;;9.43;5.50;;;;;;;12.10;100.00;100021.44;5008119;28;20037;-76
2022/05/24 06:56:02;;;;;;;9.18;5.53;;;;;;;12.12;100.00;100034.59;5014610;28;20051;-76
2022/05/24 06:58:28;;;;;;;9.50;5.38;;;;;;;12.11;100.00;100027.56;5016084;28;20025;-78
2022/05/24 07:03:38;;;;;;;7.35;5.55;;;;;;;12.12;100.00;100029.28;5014546;28;20094;-75
2022/05/24 07:06:04;;;;;;;13.43;5.53;;;;;;;12.13;100.00;100030.97;5007503;28;20438;-78
2022/05/24 07:08:30;;;;;;;7.55;5.03;;;;;;;12.11;100.00;100028.44;5029049;28;20272;-76
2022/05/24 07:10:55;;;;;;;8.75;4.82;;;;;;;12.10;100.00;100040.00;5016009;28;20392;-76
2022/05/24 07:13:21;;;;;;;7.20;4.70;;;;;;;12.11;100.00;100056.75;5012997;28;20063;-76
2022/05/24 07:15:48;;;;;;;8.68;4.68;;;;;;;12.12;100.00;100061.97;5020274;28;20099;-76
2022/05/24 07:18:15;;;;;;;7.18;4.97;;;;;;;12.13;100.00;100061.03;5029602;28;20057;-75
2022/05/24 07:20:41;;;;;;;8.75;4.78;;;;;;;12.18;100.00;100066.91;5014285;28;20530;-76
2022/05/24 07:23:10;;;;;;;8.63;5.25;;;;;;;12.23;100.00;100071.91;5012985;28;20041;-75
2022/05/24 07:25:36;;;;;;;8.18;4.88;;;;;;;12.26;100.00;100073.50;5016705;28;20061;-74
2022/05/24 07:28:03;;;;;;;6.05;4.38;;;;;;;12.28;100.00;100080.41;5008714;28;20037;-77
2022/05/24 07:30:28;;;;;;;5.93;4.30;;;;;;;12.32;100.00;100089.03;5015255;28;20108;-76
2022/05/24 07:32:53;;;;;;;6.22;4.60;;;;;;;12.34;100.00;100088.00;5013617;28;20076;-76
2022/05/24 07:35:19;;;;;;;8.10;5.00;;;;;;;12.35;100.00;100081.72;5016268;28;20142;-76
2022/05/24 07:37:44;;;;;;;8.77;4.75;;;;;;;12.39;100.00;100094.78;5013706;28;20057;-77
2022/05/24 07:45:51;;;;;;;4.75;4.10;;;;;;;12.43;100.00;100096.28;5014995;28;20635;-78
2022/05/24 07:48:18;;;;;;;5.78;4.25;;;;;;;12.49;100.00;100103.88;5021451;28;20148;-76
2022/05/24 07:50:44;;;;;;;7.60;4.40;;;;;;;12.54;100.00;100099.09;5009529;28;20037;-77
2022/05/24 07:53:10;;;;;;;6.50;4.40;;;;;;;12.60;100.00;100111.97;5012692;28;20048;-76
2022/05/24 07:55:36;;;;;;;5.72;3.67;;;;;;;12.67;100.00;100099.13;5015655;28;21307;-77
2022/05/24 07:58:02;;;;;;;5.85;3.22;;;;;;;12.70;100.00;100108.72;5014654;28;20034;-75
2022/05/24 08:00:27;;;;;;;6.68;3.53;;;;;;;12.67;100.00;100108.91;5021507;28;20468;-77
2022/05/24 08:02:53;;;;;;;4.45;3.72;;;;;;;12.58;100.00;100100.59;5012943;28;20040;-78
2022/05/24 08:05:20;;;;;;;7.95;3.88;;;;;;;12.54;100.00;100103.56;5013706;28;20156;-78
2022/05/24 08:07:49;;;;;;;5.63;3.47;;;;;;;12.48;100.00;100104.81;5011648;28;20124;-76
2022/05/24 08:10:15;;;;;;;4.25;3.60;;;;;;;12.42;100.00;100111.34;5005214;28;20756;-76
2022/05/24 08:12:41;;;;;;;5.07;3.50;;;;;;;12.39;100.00;100110.72;5021145;28;20391;-77
2022/05/24 08:15:07;;;;;;;5.85;3.55;;;;;;;12.32;100.00;100110.25;5011801;28;21146;-78
2022/05/24 08:17:34;;;;;;;4.20;3.33;;;;;;;12.26;100.00;100127.41;5028643;28;20056;-77
2022/05/24 08:19:59;;;;;;;5.35;3.60;;;;;;;12.24;100.00;100120.53;5034114;28;20044;-77
2022/05/24 08:22:25;;;;;;;7.47;4.10;;;;;;;12.18;100.00;100122.63;4982269;28;20133;-78
2022/05/24 08:24:51;;;;;;;6.60;4.25;;;;;;;12.12;100.00;100138.06;5032980;28;20112;-76
2022/05/24 08:27:16;;;;;;;5.78;3.33;;;;;;;12.03;100.00;100158.03;5034868;28;20043;-76
2022/05/24 08:29:57;;;;;;;4.68;2.85;;;;;;;11.72;100.00;100160.78;5037303;28;20488;-76
2022/05/24 08:32:23;;;;;;;2.85;1.83;;;;;;;11.35;100.00;100163.00;5023893;28;20091;-76
2022/05/24 08:34:48;;;;;;;3.53;2.72;;;;;;;11.08;100.00;100161.03;5020213;28;20693;-76
2022/05/24 08:37:14;;;;;;;4.18;2.25;;;;;;;10.91;100.00;100160.25;5037356;28;20031;-76
2022/05/24 08:39:40;;;;;;;3.80;2.30;;;;;;;10.82;100.00;100174.88;5040323;28;20033;-75
2022/05/24 08:42:28;;;;;;;4.22;2.38;;;;;;;10.81;100.00;100177.59;5012960;28;20035;-75
2022/05/24 08:48:22;;;;;;;5.35;3.70;;;;;;;10.87;100.00;100185.19;5033627;28;20029;-73
2022/05/24 08:50:51;;;;;;;6.05;3.53;;;;;;;10.92;100.00;100177.84;5017485;28;20403;-75
2022/05/24 08:53:45;;;;;;;6.68;3.50;;;;;;;10.98;100.00;100182.78;5032812;28;20041;-74
2022/05/24 08:56:16;;;;;;;6.43;3.72;;;;;;;11.03;100.00;100174.56;5006723;28;20044;-75
2022/05/24 08:58:45;;;;;;;6.63;3.88;;;;;;;11.18;100.00;100186.06;5013072;28;25495;-74
2022/05/24 09:01:17;;;;;;;6.90;3.90;;;;;;;11.35;100.00;100186.88;5014136;28;20045;-74
2022/05/24 09:03:42;;;;;;;11.00;4.43;;;;;;;11.45;100.00;100182.75;5032556;28;20037;-74
2022/05/24 09:06:24;;;;;;;7.25;4.30;;;;;;;11.55;100.00;100186.53;5016086;28;20063;-74
2022/05/24 09:09:29;;;;;;;6.15;3.72;;;;;;;11.68;100.00;100191.09;5012451;28;20043;-75
2022/05/24 09:12:17;;;;;;;5.65;3.88;;;;;;;11.94;100.00;100180.69;5013750;28;20077;-75
2022/05/24 09:14:52;;;;;;;7.43;4.43;;;;;;;12.15;100.00;100185.66;5033779;28;20135;-75
2022/05/24 09:17:39;;;;;;;6.93;3.72;;;;;;;12.13;100.00;100183.09;5033990;28;20600;-75
2022/05/24 09:20:33;;;;;;;7.60;4.32;;;;;;;12.07;100.00;100178.16;5036493;28;20128;-77
2022/05/24 09:23:04;;;;;;;5.40;3.60;;;;;;;12.14;100.00;100186.59;5025304;28;20596;-75
2022/05/24 09:25:30;;;;;;;4.45;3.13;;;;;;;12.26;100.00;100185.81;5011049;28;20033;-74
2022/05/24 09:27:55;;;;;;;6.57;3.85;;;;;;;12.50;100.00;100170.09;5031339;28;20043;-74
2022/05/24 09:30:30;;;;;;;5.15;4.00;;;;;;;12.67;100.00;100175.28;5013960;28;20377;-75
2022/05/24 09:33:25;;;;;;;4.57;3.40;;;;;;;12.84;100.00;100175.06;5032131;28;20029;-74
2022/05/24 09:35:58;;;;;;;4.35;3.35;;;;;;;13.03;100.00;100179.16;5019989;28;20041;-75
2022/05/24 09:38:39;;;;;;;3.88;2.90;;;;;;;13.24;100.00;100186.66;4994535;28;20036;-75
2022/05/24 09:41:23;;;;;;;2.90;2.40;;;;;;;13.28;100.00;100189.00;4996416;28;20029;-76
2022/05/24 09:44:06;;;;;;;3.92;2.45;;;;;;;13.17;100.00;100187.06;5030658;28;20060;-75
2022/05/24 09:46:32;;;;;;;3.03;2.25;;;;;;;13.02;100.00;100198.72;5030395;28;20048;-75
2022/05/24 09:49:03;;;;;;;3.80;2.33;;;;;;;12.92;100.00;100202.91;5032348;28;20186;-75
2022/05/24 09:51:39;;;;;;;3.60;2.33;;;;;;;12.78;100.00;100194.03;5033965;28;20037;-75
2022/05/24 09:54:13;;;;;;;3.80;2.17;;;;;;;12.78;100.00;100207.31;5009449;28;20067;-74
2022/05/24 09:56:39;;;;;;;2.80;2.17;;;;;;;12.85;100.00;100202.47;5030081;28;20086;-74
2022/05/24 09:59:08;;;;;;;2.85;2.15;;;;;;;12.96;100.00;100210.56;4998805;28;20667;-75
2022/05/24 10:01:40;;;;;;;5.57;2.35;;;;;;;13.08;100.00;100202.75;5012211;28;20063;-75
2022/05/24 10:04:29;;;;;;;3.83;2.83;;;;;;;13.02;100.00;100212.84;5008222;28;20047;-73
2022/05/24 10:06:55;;;;;;;5.28;2.40;;;;;;;12.92;100.00;100213.53;4996474;28;20036;-73
2022/05/24 10:09:35;;;;;;;3.05;2.15;;;;;;;12.76;100.00;100225.16;5028381;28;20056;-73
2022/05/24 10:12:12;;;;;;;5.40;2.90;;;;;;;12.70;100.00;100223.75;5000021;28;20396;-73
2022/05/24 10:14:43;;;;;;;2.80;2.50;;;;;;;12.65;100.00;100228.53;5010586;28;20039;-72
2022/05/24 10:17:24;;;;;;;4.20;2.78;;;;;;;12.78;100.00;100225.91;5006684;28;20684;-73
2022/05/24 10:19:58;;;;;;;3.95;3.17;;;;;;;13.14;100.00;100237.72;4996921;28;20760;-73
2022/05/24 10:23:08;;;;;;;4.28;2.92;;;;;;;13.38;100.00;100221.13;5012293;28;20037;-75
2022/05/24 10:25:39;;;;;;;3.95;2.50;;;;;;;13.35;100.00;100239.91;4994407;28;20056;-74
2022/05/24 10:28:13;;;;;;;4.85;2.38;;;;;;;13.36;100.00;100249.63;5021110;28;20072;-76
2022/05/24 10:30:55;;;;;;;2.03;1.75;;;;;;;13.25;100.00;100246.81;5011203;28;20103;-76
2022/05/24 10:39:49;;;;;;;1.60;0.90;;;;;;;12.29;100.00;100307.72;5011783;28;20054;-74
2022/05/24 10:42:33;;;;;;;1.25;0.98;;;;;;;12.06;100.00;100322.38;5008867;28;20235;-78
2022/05/24 10:45:08;;;;;;;1.20;1.00;;;;;;;11.96;100.00;100322.03;5018389;28;20043;-79
2022/05/24 10:47:49;;;;;;;2.13;0.82;;;;;;;11.94;100.00;100329.25;5007884;28;20115;-77
2022/05/24 10:50:33;;;;;;;2.55;1.20;;;;;;;12.00;100.00;100331.53;5011524;28;20041;-80
2022/05/24 10:53:04;;;;;;;1.55;1.40;;;;;;;12.22;100.00;100336.41;5005316;28;20041;-78
2022/05/24 10:55:38;;;;;;;2.25;1.15;;;;;;;12.35;100.00;100343.63;5026804;28;20041;-77
2022/05/24 10:58:11;;;;;;;1.52;1.20;;;;;;;12.39;100.00;100336.34;4976842;28;20043;-78
2022/05/24 11:00:41;;;;;;;2.13;1.38;;;;;;;12.41;100.00;100342.44;5005150;28;20033;-77
2022/05/24 11:03:06;;;;;;;1.83;1.30;;;;;;;12.46;100.00;100342.97;5010771;28;20124;-77
2022/05/24 11:05:43;;;;;;;1.23;1.13;;;;;;;12.45;100.00;100350.09;5012288;28;20259;-76
2022/05/24 11:08:30;;;;;;;1.75;1.25;;;;;;;12.51;100.00;100348.88;5002536;28;20392;-77
2022/05/24 11:10:59;;;;;;;2.47;1.10;;;;;;;12.65;100.00;100350.69;5030563;28;20243;-79
2022/05/24 11:13:42;;;;;;;2.15;0.93;;;;;;;12.72;100.00;100357.31;5012202;28;20053;-79
2022/05/24 11:16:15;;;;;;;1.02;0.90;;;;;;;12.61;100.00;100365.94;4996470;28;20405;-77
2022/05/24 11:18:44;;;;;;;1.35;0.82;;;;;;;12.53;100.00;100378.81;4996734;28;20037;-78
2022/05/24 11:21:34;;;;;;;1.98;1.00;;;;;;;12.52;100.00;100381.59;4994600;28;20863;-78
2022/05/24 11:24:51;;;;;;;2.70;1.33;;;;;;;12.62;100.00;100383.59;5028197;28;20038;-78
2022/05/24 11:27:23;;;;;;;2.55;1.60;;;;;;;12.72;100.00;100377.69;5002074;28;20488;-79
2022/05/24 11:29:52;;;;;;;2.53;1.65;;;;;;;12.77;100.00;100380.94;5015151;28;20032;-78
2022/05/24 11:32:46;;;;;;;1.30;1.20;;;;;;;12.73;100.00;100401.50;5035074;28;20043;-78
2022/05/24 11:35:24;;;;;;;2.45;1.10;;;;;;;12.77;100.00;100395.03;5015740;28;20088;-77
2022/05/24 11:37:51;;;;;;;1.50;1.08;;;;;;;12.92;100.00;100407.47;5034728;28;20021;-76
2022/05/24 11:40:38;;;;;;;1.27;1.00;;;;;;;12.99;100.00;100401.69;5016967;28;20028;-78
2022/05/24 11:43:10;;;;;;;2.45;1.00;;;;;;;12.98;100.00;100409.75;4992544;28;20502;-78
2022/05/24 11:45:54;;;;;;;1.70;1.10;;;;;;;12.94;100.00;100419.72;5034520;28;20463;-78
2022/05/24 11:48:20;;;;;;;1.35;1.20;;;;;;;12.87;100.00;100424.56;5025565;28;20075;-78
2022/05/24 11:50:48;;;;;;;1.40;1.20;;;;;;;12.80;100.00;100425.88;5018133;28;20519;-78
2022/05/24 11:53:39;;;;;;;2.58;1.00;;;;;;;12.69;100.00;100436.31;5025136;28;20064;-76
2022/05/24 11:56:08;;;;;;;2.50;1.05;;;;;;;12.66;100.00;100441.81;5017510;28;20036;-78
2022/05/24 11:58:34;;;;;;;2.35;0.90;;;;;;;12.81;100.00;100443.53;5034078;28;20704;-78
2022/05/24 12:01:13;;;;;;;3.53;1.10;;;;;;;12.98;100.00;100439.00;5009219;28;20292;-78
2022/05/24 12:09:57;;;;;;;1.30;0.80;;;;;;;13.32;100.00;100450.16;5033109;28;20064;-77
2022/05/24 12:12:51;;;;;;;1.92;0.88;;;;;;;13.27;100.00;100457.56;5016439;28;20515;-80
2022/05/24 12:15:21;;;;;;;0.80;0.80;;;;;;;13.17;100.00;100463.47;5032495;28;20045;-78